createdAt,value
2019-05-30T00:00:40.607Z,12.40
2019-05-30T00:03:07.659Z,12.40
2019-05-30T00:05:34.609Z,12.50
2019-05-30T00:08:02.414Z,12.50
2019-05-30T00:10:29.420Z,12.60
2019-05-30T00:12:56.679Z,12.60
2019-05-30T00:15:23.531Z,12.80
2019-05-30T00:17:50.458Z,12.70
2019-05-30T00:20:17.367Z,12.70
2019-05-30T00:22:44.662Z,12.70
2019-05-30T00:25:11.815Z,12.60
2019-05-30T00:27:38.522Z,12.60
2019-05-30T00:30:22.835Z,12.70
2019-05-30T00:32:34.365Z,12.70
2019-05-30T00:35:02.040Z,12.70
2019-05-30T00:37:29.511Z,12.80
2019-05-30T00:39:56.210Z,12.80
2019-05-30T00:42:22.958Z,12.80
2019-05-30T00:44:49.804Z,12.80
2019-05-30T00:47:16.787Z,12.80
2019-05-30T00:49:43.803Z,12.70
2019-05-30T00:52:10.788Z,12.60
2019-05-30T00:54:37.932Z,12.40
2019-05-30T00:57:04.947Z,12.20
2019-05-30T00:59:31.730Z,12.10
2019-05-30T01:01:58.631Z,12.00
2019-05-30T01:04:25.423Z,11.80
2019-05-30T01:06:52.388Z,11.60
2019-05-30T01:09:19.480Z,11.50
2019-05-30T01:11:46.660Z,11.40
2019-05-30T01:14:13.370Z,11.30
2019-05-30T01:16:42.586Z,11.10
2019-05-30T01:19:09.348Z,11.10
2019-05-30T01:21:36.294Z,11.10
2019-05-30T01:24:03.610Z,11.10
2019-05-30T01:26:30.520Z,11.10
2019-05-30T01:28:57.372Z,11.00
2019-05-30T01:31:24.302Z,11.00
2019-05-30T01:33:51.556Z,10.90
2019-05-30T01:36:18.280Z,10.80
2019-05-30T01:38:45.218Z,10.80
2019-05-30T01:41:12.562Z,10.80
2019-05-30T01:43:39.477Z,10.60
2019-05-30T01:46:06.796Z,10.70
2019-05-30T01:48:33.500Z,10.60
2019-05-30T01:51:00.495Z,10.50
2019-05-30T01:53:27.656Z,10.50
2019-05-30T01:55:54.653Z,10.50
2019-05-30T01:58:21.654Z,10.40
2019-05-30T02:00:48.552Z,10.40
2019-05-30T02:03:15.256Z,10.30
2019-05-30T02:05:41.950Z,10.30
2019-05-30T02:08:10.101Z,10.30
2019-05-30T02:10:37.388Z,10.20
2019-05-30T02:13:05.455Z,10.20
2019-05-30T02:15:32.409Z,10.10
2019-05-30T02:17:59.489Z,10.10
2019-05-30T02:20:26.884Z,10.00
2019-05-30T02:22:53.820Z,10.00
2019-05-30T02:25:20.716Z,10.00
2019-05-30T02:27:48.031Z,9.90
2019-05-30T02:30:15.381Z,9.90
2019-05-30T02:32:42.073Z,9.90
2019-05-30T02:35:12.141Z,9.90
2019-05-30T02:37:38.886Z,9.90
2019-05-30T02:40:09.891Z,9.80
2019-05-30T02:42:35.407Z,9.80
2019-05-30T02:45:03.720Z,9.70
2019-05-30T02:47:31.040Z,9.70
2019-05-30T02:49:58.013Z,9.60
2019-05-30T02:52:24.957Z,9.60
2019-05-30T02:54:52.004Z,9.60
2019-05-30T02:57:19.058Z,9.60
2019-05-30T02:59:45.772Z,9.50
2019-05-30T03:02:16.749Z,9.50
2019-05-30T03:04:41.613Z,9.50
2019-05-30T03:07:10.682Z,9.40
2019-05-30T03:09:37.343Z,9.40
2019-05-30T03:12:06.381Z,9.40
2019-05-30T03:14:33.474Z,9.50
2019-05-30T03:17:02.324Z,9.50
2019-05-30T03:19:29.101Z,9.50
2019-05-30T03:21:55.910Z,9.50
2019-05-30T03:24:22.858Z,9.50
2019-05-30T03:26:49.665Z,9.50
2019-05-30T03:29:16.934Z,9.50
2019-05-30T03:31:44.537Z,9.50
2019-05-30T03:34:22.102Z,9.50
2019-05-30T03:36:39.979Z,9.50
2019-05-30T03:39:07.705Z,9.50
2019-05-30T03:41:35.329Z,9.50
2019-05-30T03:44:04.019Z,9.60
2019-05-30T03:46:35.929Z,9.70
2019-05-30T03:49:04.274Z,9.80
2019-05-30T03:51:33.006Z,9.90
2019-05-30T03:54:00.997Z,10.00
2019-05-30T03:56:33.102Z,10.10
2019-05-30T03:59:15.817Z,10.10
2019-05-30T04:01:53.622Z,10.20
2019-05-30T04:04:25.510Z,10.30
2019-05-30T04:06:58.178Z,10.50
2019-05-30T04:09:26.532Z,10.60
2019-05-30T04:12:02.669Z,10.80
2019-05-30T04:14:33.462Z,10.90
2019-05-30T04:17:00.143Z,11.00
2019-05-30T04:19:27.130Z,11.20
2019-05-30T04:21:54.575Z,11.30
2019-05-30T04:24:21.353Z,11.50
2019-05-30T04:26:48.297Z,11.60
2019-05-30T04:29:16.737Z,11.90
2019-05-30T04:31:43.708Z,12.30
2019-05-30T04:34:10.432Z,12.30
2019-05-30T04:36:37.105Z,12.60
2019-05-30T04:39:06.022Z,13.00
2019-05-30T04:41:32.730Z,13.30
2019-05-30T04:43:59.404Z,13.60
2019-05-30T04:46:26.681Z,13.80
2019-05-30T04:48:53.365Z,13.80
2019-05-30T04:51:21.789Z,14.20
2019-05-30T04:53:48.676Z,15.60
2019-05-30T04:56:17.185Z,17.40
2019-05-30T04:58:43.968Z,19.00
2019-05-30T05:01:11.003Z,19.90
2019-05-30T05:03:45.811Z,20.30
2019-05-30T05:06:06.774Z,20.30
2019-05-30T05:08:33.776Z,20.30
2019-05-30T05:11:01.049Z,18.70
2019-05-30T05:13:28.324Z,18.00
2019-05-30T05:15:55.012Z,18.40
2019-05-30T05:18:23.222Z,20.00
2019-05-30T05:20:50.234Z,20.10
2019-05-30T05:23:17.329Z,21.30
2019-05-30T05:25:59.491Z,22.20
2019-05-30T05:28:13.652Z,23.00
2019-05-30T05:30:40.840Z,23.20
2019-05-30T05:33:07.604Z,23.50
2019-05-30T05:35:34.302Z,23.90
2019-05-30T05:38:01.144Z,23.60
2019-05-30T05:40:28.525Z,23.10
2019-05-30T05:42:55.519Z,24.40
2019-05-30T05:45:22.913Z,24.90
2019-05-30T05:47:49.951Z,24.40
2019-05-30T05:50:16.905Z,25.40
2019-05-30T05:52:43.656Z,25.70
2019-05-30T05:55:12.660Z,26.80
2019-05-30T05:57:39.367Z,25.90
2019-05-30T06:00:06.597Z,26.50
2019-05-30T06:02:33.719Z,26.90
2019-05-30T06:05:00.852Z,27.00
2019-05-30T06:07:28.522Z,26.10
2019-05-30T06:09:55.664Z,26.00
2019-05-30T06:12:23.749Z,27.20
2019-05-30T06:14:50.885Z,27.60
2019-05-30T06:17:18.893Z,29.30
2019-05-30T06:19:46.962Z,30.50
2019-05-30T06:22:13.946Z,29.90
2019-05-30T06:24:40.821Z,29.70
2019-05-30T06:27:07.576Z,28.60
2019-05-30T06:29:34.288Z,28.30
2019-05-30T06:32:00.984Z,27.40
2019-05-30T06:34:38.113Z,28.30
2019-05-30T06:36:56.323Z,28.80
2019-05-30T06:39:23.475Z,29.70
2019-05-30T06:41:51.240Z,29.70
2019-05-30T06:44:17.965Z,30.60
2019-05-30T06:46:45.080Z,30.70
2019-05-30T06:49:11.786Z,30.00
2019-05-30T06:51:38.862Z,29.00
2019-05-30T06:54:05.652Z,27.60
2019-05-30T06:56:32.721Z,27.60
2019-05-30T06:58:59.416Z,27.60
2019-05-30T07:01:26.222Z,27.50
2019-05-30T07:03:53.737Z,27.00
2019-05-30T07:06:21.181Z,26.90
2019-05-30T07:08:49.674Z,26.70
2019-05-30T07:11:16.487Z,26.30
2019-05-30T07:13:43.503Z,25.70
2019-05-30T07:16:10.313Z,25.40
2019-05-30T07:18:37.102Z,25.60
2019-05-30T07:21:03.969Z,26.10
2019-05-30T07:23:31.933Z,26.30
2019-05-30T07:25:58.788Z,26.80
2019-05-30T07:28:25.889Z,26.80
2019-05-30T07:30:52.683Z,26.70
2019-05-30T07:33:19.685Z,27.60
2019-05-30T07:35:46.538Z,27.60
2019-05-30T07:38:13.228Z,27.30
2019-05-30T07:40:39.908Z,27.30
2019-05-30T07:43:06.637Z,26.80
2019-05-30T07:45:33.740Z,26.30
2019-05-30T07:48:00.670Z,25.90
2019-05-30T07:50:28.386Z,26.20
2019-05-30T07:52:55.636Z,26.80
2019-05-30T07:55:22.473Z,28.10
2019-05-30T07:57:49.518Z,28.30
2019-05-30T08:00:17.125Z,29.10
2019-05-30T08:02:43.842Z,29.40
2019-05-30T08:05:23.681Z,29.90
2019-05-30T08:07:41.875Z,30.70
2019-05-30T08:10:09.171Z,31.00
2019-05-30T08:12:36.301Z,30.50
2019-05-30T08:15:04.409Z,31.00
2019-05-30T08:17:31.541Z,30.10
2019-05-30T08:19:58.443Z,29.10
2019-05-30T08:22:25.189Z,27.90
2019-05-30T08:24:52.171Z,27.50
2019-05-30T08:27:18.852Z,27.10
2019-05-30T08:29:45.588Z,26.50
2019-05-30T08:32:12.300Z,25.80
2019-05-30T08:34:39.366Z,25.20
2019-05-30T08:37:06.788Z,25.10
2019-05-30T08:39:33.511Z,25.20
2019-05-30T08:42:00.380Z,25.30
2019-05-30T08:44:27.079Z,25.40
2019-05-30T08:46:53.786Z,26.00
2019-05-30T08:49:20.500Z,26.50
2019-05-30T08:51:47.387Z,27.10
2019-05-30T08:54:14.218Z,27.30
2019-05-30T08:56:41.260Z,27.60
2019-05-30T08:59:08.254Z,28.10
2019-05-30T09:01:35.727Z,28.60
2019-05-30T09:04:02.993Z,29.20
2019-05-30T09:06:29.906Z,29.60
2019-05-30T09:08:56.608Z,29.10
2019-05-30T09:11:23.336Z,29.20
2019-05-30T09:13:50.380Z,29.00
2019-05-30T09:16:17.276Z,28.50
2019-05-30T09:18:45.152Z,28.60
2019-05-30T09:21:12.492Z,29.00
2019-05-30T09:23:40.415Z,29.70
2019-05-30T09:26:08.221Z,29.60
2019-05-30T09:28:35.484Z,29.20
2019-05-30T09:31:02.176Z,28.90
2019-05-30T09:33:28.899Z,28.30
2019-05-30T09:35:55.595Z,27.90
2019-05-30T09:38:22.314Z,27.60
2019-05-30T09:40:49.656Z,27.30
2019-05-30T09:43:16.610Z,27.10
2019-05-30T09:45:43.933Z,26.80
2019-05-30T09:48:11.088Z,27.20
2019-05-30T09:50:37.830Z,27.20
2019-05-30T09:53:05.046Z,27.30
2019-05-30T09:55:31.736Z,27.40
2019-05-30T09:57:58.448Z,27.60
2019-05-30T10:00:25.453Z,27.90
2019-05-30T10:02:52.653Z,28.10
2019-05-30T10:05:23.360Z,28.00
2019-05-30T10:07:49.271Z,28.00
2019-05-30T10:10:17.752Z,27.90
2019-05-30T10:12:45.587Z,28.20
2019-05-30T10:15:15.077Z,27.90
2019-05-30T10:17:41.919Z,28.10
2019-05-30T10:20:09.622Z,28.00
2019-05-30T10:22:36.757Z,28.10
2019-05-30T10:25:04.908Z,27.70
2019-05-30T10:27:31.610Z,27.50
2019-05-30T10:29:58.325Z,27.20
2019-05-30T10:32:25.120Z,27.00
2019-05-30T10:34:52.054Z,26.70
2019-05-30T10:37:19.736Z,26.90
2019-05-30T10:39:47.256Z,27.10
2019-05-30T10:42:14.690Z,27.10
2019-05-30T10:44:41.372Z,27.20
2019-05-30T10:47:08.156Z,27.60
2019-05-30T10:49:35.394Z,27.70
2019-05-30T10:52:02.606Z,27.60
2019-05-30T10:54:29.552Z,28.00
2019-05-30T10:56:56.802Z,28.10
2019-05-30T10:59:23.706Z,28.30
2019-05-30T11:01:52.867Z,28.10
2019-05-30T11:04:19.629Z,28.00
2019-05-30T11:07:11.091Z,28.20
2019-05-30T11:09:34.072Z,28.20
2019-05-30T11:12:00.789Z,28.10
2019-05-30T11:14:27.507Z,28.40
2019-05-30T11:16:55.515Z,28.30
2019-05-30T11:19:22.480Z,28.50
2019-05-30T11:21:49.727Z,28.40
2019-05-30T11:24:17.317Z,28.30
2019-05-30T11:26:44.109Z,28.20
2019-05-30T11:29:10.787Z,28.20
2019-05-30T11:31:37.514Z,27.80
2019-05-30T11:34:04.302Z,27.60
2019-05-30T11:36:31.317Z,27.50
2019-05-30T11:38:59.401Z,27.40
2019-05-30T11:41:26.289Z,27.60
2019-05-30T11:43:53.573Z,27.70
2019-05-30T11:46:20.505Z,27.50
2019-05-30T11:48:47.422Z,27.50
2019-05-30T11:51:14.140Z,27.40
2019-05-30T11:53:40.864Z,27.60
2019-05-30T11:56:07.888Z,27.60
2019-05-30T11:58:34.596Z,27.70
2019-05-30T12:01:01.341Z,27.50
2019-05-30T12:03:29.666Z,27.40
2019-05-30T12:05:56.660Z,27.20
2019-05-30T12:08:23.456Z,27.20
2019-05-30T12:10:51.091Z,27.10
2019-05-30T12:13:18.337Z,26.70
2019-05-30T12:15:45.045Z,26.60
2019-05-30T12:18:11.724Z,26.40
2019-05-30T12:20:38.980Z,26.00
2019-05-30T12:23:05.972Z,25.90
2019-05-30T12:25:32.682Z,25.60
2019-05-30T12:28:00.135Z,25.50
2019-05-30T12:30:27.799Z,25.30
2019-05-30T12:32:54.733Z,25.40
2019-05-30T12:35:21.648Z,25.40
2019-05-30T12:37:55.044Z,25.40
2019-05-30T12:40:17.288Z,25.50
2019-05-30T12:42:44.293Z,25.50
2019-05-30T12:45:11.797Z,25.90
2019-05-30T12:47:39.129Z,26.20
2019-05-30T12:50:06.558Z,26.10
2019-05-30T12:52:33.876Z,26.20
2019-05-30T12:55:00.951Z,26.40
2019-05-30T12:57:27.925Z,26.60
2019-05-30T12:59:54.896Z,26.70
2019-05-30T13:02:21.869Z,26.70
2019-05-30T13:04:48.599Z,26.60
2019-05-30T13:07:15.280Z,26.70
2019-05-30T13:09:42.709Z,26.90
2019-05-30T13:12:09.398Z,26.80
2019-05-30T13:14:36.453Z,26.80
2019-05-30T13:17:03.929Z,26.50
2019-05-30T13:19:31.828Z,26.30
2019-05-30T13:21:59.193Z,26.20
2019-05-30T13:24:26.568Z,26.20
2019-05-30T13:26:53.584Z,26.20
2019-05-30T13:29:20.653Z,26.10
2019-05-30T13:31:47.683Z,25.90
2019-05-30T13:34:14.685Z,26.00
2019-05-30T13:36:42.006Z,26.20
2019-05-30T13:39:08.798Z,26.30
2019-05-30T13:41:35.876Z,26.10
2019-05-30T13:44:05.082Z,25.80
2019-05-30T13:46:31.599Z,25.70
2019-05-30T13:48:58.519Z,25.60
2019-05-30T13:51:25.846Z,25.50
2019-05-30T13:53:52.665Z,25.70
2019-05-30T13:56:19.625Z,25.70
2019-05-30T13:58:46.307Z,25.70
2019-05-30T14:01:14.118Z,25.70
2019-05-30T14:03:41.148Z,25.90
2019-05-30T14:06:08.405Z,25.80
2019-05-30T14:08:41.419Z,25.80
2019-05-30T14:11:04.656Z,25.70
2019-05-30T14:13:31.806Z,25.80
2019-05-30T14:15:58.526Z,26.00
2019-05-30T14:18:25.246Z,25.90
2019-05-30T14:20:52.196Z,25.70
2019-05-30T14:23:18.881Z,25.60
2019-05-30T14:25:45.915Z,25.40
2019-05-30T14:28:12.862Z,25.50
2019-05-30T14:30:39.685Z,25.70
2019-05-30T14:33:06.652Z,25.90
2019-05-30T14:35:33.613Z,26.00
2019-05-30T14:38:00.460Z,25.80
2019-05-30T14:40:27.292Z,25.40
2019-05-30T14:42:54.412Z,24.90
2019-05-30T14:45:21.480Z,24.40
2019-05-30T14:47:48.564Z,24.00
2019-05-30T14:50:17.433Z,23.90
2019-05-30T14:52:44.820Z,23.90
2019-05-30T14:55:13.299Z,24.20
2019-05-30T14:57:40.644Z,24.30
2019-05-30T15:00:09.331Z,24.40
2019-05-30T15:02:36.222Z,24.50
2019-05-30T15:05:03.573Z,24.60
2019-05-30T15:07:30.308Z,24.60
2019-05-30T15:09:57.321Z,24.60
2019-05-30T15:12:24.039Z,24.80
2019-05-30T15:14:50.749Z,24.60
2019-05-30T15:17:17.925Z,24.60
2019-05-30T15:19:45.276Z,24.30
2019-05-30T15:22:15.384Z,24.20
2019-05-30T15:24:40.970Z,23.90
2019-05-30T15:27:08.064Z,23.80
2019-05-30T15:29:34.769Z,23.60
2019-05-30T15:32:01.756Z,23.50
2019-05-30T15:34:28.683Z,23.40
2019-05-30T15:36:55.405Z,23.30
2019-05-30T15:39:32.381Z,23.50
2019-05-30T15:41:53.024Z,23.40
2019-05-30T15:44:20.378Z,23.60
2019-05-30T15:46:47.312Z,23.70
2019-05-30T15:49:14.349Z,23.80
2019-05-30T15:51:41.412Z,23.80
2019-05-30T15:54:08.802Z,23.90
2019-05-30T15:56:36.125Z,23.80
2019-05-30T15:59:03.034Z,23.80
2019-05-30T16:01:30.052Z,23.70
2019-05-30T16:03:56.982Z,23.50
2019-05-30T16:06:23.861Z,23.40
2019-05-30T16:08:50.589Z,23.40
2019-05-30T16:11:17.293Z,23.50
2019-05-30T16:13:44.606Z,23.50
2019-05-30T16:16:11.488Z,23.70
2019-05-30T16:18:38.340Z,23.60
2019-05-30T16:21:05.169Z,23.50
2019-05-30T16:23:31.869Z,23.40
2019-05-30T16:25:58.576Z,23.30
2019-05-30T16:28:26.072Z,23.40
2019-05-30T16:30:53.268Z,23.70
2019-05-30T16:33:20.316Z,23.90
2019-05-30T16:35:47.564Z,23.80
2019-05-30T16:38:14.384Z,23.60
2019-05-30T16:40:41.124Z,23.40
2019-05-30T16:43:07.845Z,23.20
2019-05-30T16:45:34.675Z,23.00
2019-05-30T16:48:01.464Z,23.10
2019-05-30T16:50:28.160Z,23.10
2019-05-30T16:52:54.865Z,23.20
2019-05-30T16:55:21.916Z,23.20
2019-05-30T16:57:48.633Z,23.30
2019-05-30T17:00:17.667Z,23.40
2019-05-30T17:02:44.643Z,23.60
2019-05-30T17:05:11.654Z,23.70
2019-05-30T17:07:38.558Z,23.70
2019-05-30T17:10:21.496Z,23.60
2019-05-30T17:12:34.607Z,23.50
2019-05-30T17:15:01.670Z,23.50
2019-05-30T17:17:28.389Z,23.30
2019-05-30T17:19:55.072Z,23.10
2019-05-30T17:22:22.780Z,22.80
2019-05-30T17:24:49.934Z,22.40
2019-05-30T17:27:17.294Z,22.30
2019-05-30T17:29:44.238Z,22.20
2019-05-30T17:32:10.931Z,22.10
2019-05-30T17:34:37.748Z,22.00
2019-05-30T17:37:04.545Z,21.90
2019-05-30T17:39:31.289Z,21.90
2019-05-30T17:41:58.006Z,21.80
2019-05-30T17:44:25.163Z,21.70
2019-05-30T17:46:52.146Z,21.60
2019-05-30T17:49:19.529Z,21.50
2019-05-30T17:51:49.821Z,21.30
2019-05-30T17:54:15.375Z,21.30
2019-05-30T17:56:42.061Z,21.20
2019-05-30T17:59:08.764Z,21.20
2019-05-30T18:01:35.736Z,21.00
2019-05-30T18:04:02.652Z,21.00
2019-05-30T18:06:29.344Z,21.00
2019-05-30T18:08:56.090Z,21.00
2019-05-30T18:11:23.385Z,20.90
2019-05-30T18:13:50.651Z,21.00
2019-05-30T18:16:17.496Z,20.90
2019-05-30T18:18:44.190Z,21.00
2019-05-30T18:21:10.881Z,21.10
2019-05-30T18:23:37.648Z,21.10
2019-05-30T18:26:04.909Z,21.10
2019-05-30T18:28:32.063Z,21.10
2019-05-30T18:30:58.853Z,21.10
2019-05-30T18:33:26.115Z,21.00
2019-05-30T18:35:53.181Z,20.90
2019-05-30T18:38:20.014Z,20.90
2019-05-30T18:40:46.890Z,20.80
2019-05-30T18:43:13.678Z,20.70
2019-05-30T18:45:41.124Z,20.60
2019-05-30T18:48:09.244Z,20.50
2019-05-30T18:50:36.165Z,20.50
2019-05-30T18:53:03.178Z,20.40
2019-05-30T18:55:30.739Z,20.30
2019-05-30T18:57:57.591Z,20.20
2019-05-30T19:00:24.918Z,20.10
2019-05-30T19:02:51.721Z,19.90
2019-05-30T19:05:18.885Z,19.80
2019-05-30T19:07:45.596Z,19.60
2019-05-30T19:10:12.725Z,19.50
2019-05-30T19:12:39.445Z,19.40
2019-05-30T19:15:07.164Z,19.30
2019-05-30T19:17:34.188Z,19.20
2019-05-30T19:20:00.895Z,19.10
2019-05-30T19:22:28.378Z,19.10
2019-05-30T19:24:56.382Z,19.10
2019-05-30T19:27:23.228Z,19.00
2019-05-30T19:29:50.126Z,19.00
2019-05-30T19:32:17.128Z,18.90
2019-05-30T19:34:43.956Z,18.90
2019-05-30T19:37:10.668Z,18.90
2019-05-30T19:39:37.774Z,18.90
2019-05-30T19:42:04.728Z,18.80
2019-05-30T19:44:31.950Z,18.90
2019-05-30T19:46:59.064Z,18.80
2019-05-30T19:49:26.091Z,18.80
2019-05-30T19:51:53.108Z,18.80
2019-05-30T19:54:19.833Z,18.70
2019-05-30T19:56:46.549Z,18.60
2019-05-30T19:59:13.643Z,18.60
2019-05-30T20:01:40.407Z,18.50
2019-05-30T20:04:07.126Z,18.50
2019-05-30T20:06:34.593Z,18.50
2019-05-30T20:09:01.445Z,18.50
2019-05-30T20:11:28.742Z,18.40
2019-05-30T20:13:55.713Z,18.40
2019-05-30T20:16:22.736Z,18.50
2019-05-30T20:18:49.449Z,18.50
2019-05-30T20:21:16.396Z,18.60
2019-05-30T20:23:52.706Z,18.50
2019-05-30T20:26:12.980Z,18.50
2019-05-30T20:28:40.816Z,18.50
2019-05-30T20:31:07.576Z,18.50
2019-05-30T20:33:34.488Z,18.50
2019-05-30T20:36:01.529Z,18.50
2019-05-30T20:38:28.920Z,18.50
2019-05-30T20:40:55.659Z,18.50
2019-05-30T20:43:22.744Z,18.60
2019-05-30T20:45:50.088Z,18.60
2019-05-30T20:48:16.976Z,18.60
2019-05-30T20:50:43.689Z,18.50
2019-05-30T20:53:10.653Z,18.40
2019-05-30T20:55:38.360Z,18.50
2019-05-30T20:58:05.281Z,18.60
2019-05-30T21:00:37.789Z,18.60
2019-05-30T21:03:04.863Z,18.50
2019-05-30T21:05:31.544Z,18.40
2019-05-30T21:07:59.272Z,18.40
2019-05-30T21:10:27.057Z,18.30
2019-05-30T21:12:54.777Z,18.10
2019-05-30T21:15:21.668Z,18.00
2019-05-30T21:17:50.265Z,18.10
2019-05-30T21:20:17.580Z,18.10
2019-05-30T21:22:44.827Z,18.10
2019-05-30T21:25:11.839Z,18.10
2019-05-30T21:27:39.068Z,18.10
2019-05-30T21:30:06.569Z,18.20
2019-05-30T21:32:33.595Z,18.20
2019-05-30T21:35:00.752Z,18.20
2019-05-30T21:37:27.601Z,18.20
2019-05-30T21:39:54.280Z,18.20
2019-05-30T21:42:21.137Z,18.10
2019-05-30T21:44:51.388Z,18.10
2019-05-30T21:47:16.789Z,18.10
2019-05-30T21:49:44.910Z,18.00
2019-05-30T21:52:11.672Z,18.00
2019-05-30T21:54:39.792Z,18.00
2019-05-30T21:57:06.613Z,18.00
2019-05-30T21:59:33.650Z,18.00
2019-05-30T22:02:00.634Z,18.00
2019-05-30T22:04:27.862Z,18.00
2019-05-30T22:06:54.569Z,18.00
2019-05-30T22:09:21.357Z,18.00
2019-05-30T22:11:49.600Z,17.90
2019-05-30T22:14:16.496Z,17.80
2019-05-30T22:16:43.982Z,17.80
2019-05-30T22:19:11.036Z,17.70
2019-05-30T22:21:37.741Z,17.70
2019-05-30T22:24:04.886Z,17.60
2019-05-30T22:26:31.682Z,17.60
2019-05-30T22:28:58.508Z,17.60
2019-05-30T22:31:25.836Z,17.50
2019-05-30T22:33:53.317Z,17.50
2019-05-30T22:36:20.397Z,17.50
2019-05-30T22:38:47.402Z,17.50
2019-05-30T22:41:14.109Z,17.40
2019-05-30T22:43:41.118Z,17.40
2019-05-30T22:46:07.805Z,17.50
2019-05-30T22:48:34.520Z,17.50
2019-05-30T22:51:01.228Z,17.50
2019-05-30T22:53:27.950Z,17.50
2019-05-30T22:55:54.656Z,17.40
2019-05-30T22:58:21.928Z,17.50
2019-05-30T23:00:49.852Z,17.50
2019-05-30T23:03:17.076Z,17.60
2019-05-30T23:05:45.190Z,17.60
2019-05-30T23:08:12.560Z,17.50
2019-05-30T23:10:39.393Z,17.60
2019-05-30T23:13:06.092Z,17.60
2019-05-30T23:15:32.885Z,17.80
2019-05-30T23:17:59.620Z,17.80
2019-05-30T23:20:26.637Z,17.60
2019-05-30T23:22:53.351Z,17.70
2019-05-30T23:25:20.564Z,17.60
2019-05-30T23:27:47.454Z,17.60
2019-05-30T23:30:14.633Z,17.50
2019-05-30T23:32:41.328Z,17.50
2019-05-30T23:35:08.231Z,17.60
2019-05-30T23:37:34.904Z,17.50
2019-05-30T23:40:01.810Z,17.50
2019-05-30T23:42:28.780Z,17.50
2019-05-30T23:44:55.856Z,17.40
2019-05-30T23:47:22.585Z,17.40
2019-05-30T23:49:49.948Z,17.30
2019-05-30T23:52:17.294Z,17.30
2019-05-30T23:54:43.991Z,17.30
2019-05-30T23:57:10.705Z,17.20
2019-05-30T23:59:37.414Z,17.20
